JAD weather

Perth Jandakot Airport
Perth, Western Australia, Australia

Public forecast

Using degrees Celsius for public forecast. Weather courtesy of forecast.io.

METAR (pilot weather report)

Retrieved 2018/11/17 02:30 UTC (0 seconds ago):

YPJT 170230Z AUTO 31014KT 6000 // OVC012 22/19 Q1011 RF00.0/000.0

TAF (pilot weather forecast)

Forecast is more than 12 hours old.

Retrieved 2018/11/16 00:00 UTC (1 day ago):

TAF YPJT 162240Z 1700/1718 02008KT 9999 BKN012 BECMG 1700/1701 29012KT CAVOK FM170800 24012KT 9999 BKN020